sensor_id;sensor_type;location;lat;lon;timestamp;temperature;humidity
10581;DHT22;5338;51.500;6.802;2022-09-13T00:01:01;19.10;99.90
10581;DHT22;5338;51.500;6.802;2022-09-13T00:05:55;19.00;99.90
10581;DHT22;5338;51.500;6.802;2022-09-13T00:13:18;19.10;99.90
10581;DHT22;5338;51.500;6.802;2022-09-13T00:15:46;19.10;99.90
10581;DHT22;5338;51.500;6.802;2022-09-13T00:20:40;19.00;99.90
10581;DHT22;5338;51.500;6.802;2022-09-13T00:23:07;19.00;99.90
10581;DHT22;5338;51.500;6.802;2022-09-13T00:31:03;19.00;99.90
10581;DHT22;5338;51.500;6.802;2022-09-13T00:43:36;19.00;99.90
10581;DHT22;5338;51.500;6.802;2022-09-13T00:46:07;19.00;99.90
10581;DHT22;5338;51.500;6.802;2022-09-13T00:48:35;19.30;99.90
10581;DHT22;5338;51.500;6.802;2022-09-13T00:51:04;19.00;99.90
10581;DHT22;5338;51.500;6.802;2022-09-13T00:53:36;18.80;99.90
10581;DHT22;5338;51.500;6.802;2022-09-13T00:56:07;18.90;99.90
10581;DHT22;5338;51.500;6.802;2022-09-13T00:58:38;18.90;99.90
10581;DHT22;5338;51.500;6.802;2022-09-13T01:01:10;18.90;99.90
10581;DHT22;5338;51.500;6.802;2022-09-13T01:03:39;18.80;99.90
10581;DHT22;5338;51.500;6.802;2022-09-13T01:06:10;18.80;99.90
10581;DHT22;5338;51.500;6.802;2022-09-13T01:08:38;18.80;99.90
10581;DHT22;5338;51.500;6.802;2022-09-13T01:11:09;18.60;99.90
10581;DHT22;5338;51.500;6.802;2022-09-13T01:13:38;18.90;99.90
10581;DHT22;5338;51.500;6.802;2022-09-13T01:18:33;18.80;99.90
10581;DHT22;5338;51.500;6.802;2022-09-13T01:27:18;18.70;99.90
10581;DHT22;5338;51.500;6.802;2022-09-13T01:30:20;18.70;99.90
10581;DHT22;5338;51.500;6.802;2022-09-13T01:33:13;18.80;99.90
10581;DHT22;5338;51.500;6.802;2022-09-13T01:35:49;18.70;99.90
10581;DHT22;5338;51.500;6.802;2022-09-13T01:38:32;18.60;99.90
10581;DHT22;5338;51.500;6.802;2022-09-13T01:41:09;18.70;99.90
10581;DHT22;5338;51.500;6.802;2022-09-13T01:43:48;18.70;99.90
10581;DHT22;5338;51.500;6.802;2022-09-13T01:46:21;18.70;99.90
10581;DHT22;5338;51.500;6.802;2022-09-13T01:48:54;18.70;99.90
10581;DHT22;5338;51.500;6.802;2022-09-13T01:51:28;18.70;99.90
10581;DHT22;5338;51.500;6.802;2022-09-13T01:54:12;18.60;99.90
10581;DHT22;5338;51.500;6.802;2022-09-13T01:56:44;18.70;99.90
10581;DHT22;5338;51.500;6.802;2022-09-13T01:59:17;18.60;99.90
10581;DHT22;5338;51.500;6.802;2022-09-13T02:01:53;18.40;99.90
10581;DHT22;5338;51.500;6.802;2022-09-13T02:04:26;18.50;99.90
10581;DHT22;5338;51.500;6.802;2022-09-13T02:07:01;18.50;99.90
10581;DHT22;5338;51.500;6.802;2022-09-13T02:09:32;18.70;99.90
10581;DHT22;5338;51.500;6.802;2022-09-13T02:12:03;18.60;99.90
10581;DHT22;5338;51.500;6.802;2022-09-13T02:14:34;18.70;99.90
10581;DHT22;5338;51.500;6.802;2022-09-13T02:17:06;18.70;99.90
10581;DHT22;5338;51.500;6.802;2022-09-13T02:19:38;18.50;99.90
10581;DHT22;5338;51.500;6.802;2022-09-13T02:22:07;18.60;99.90
10581;DHT22;5338;51.500;6.802;2022-09-13T02:24:37;18.60;99.90
10581;DHT22;5338;51.500;6.802;2022-09-13T02:27:07;18.70;99.90
10581;DHT22;5338;51.500;6.802;2022-09-13T02:29:37;18.60;99.90
10581;DHT22;5338;51.500;6.802;2022-09-13T02:32:09;18.60;99.90
10581;DHT22;5338;51.500;6.802;2022-09-13T02:34:39;18.60;99.90
10581;DHT22;5338;51.500;6.802;2022-09-13T02:37:08;19.10;99.90
10581;DHT22;5338;51.500;6.802;2022-09-13T02:39:40;18.60;99.90
10581;DHT22;5338;51.500;6.802;2022-09-13T02:42:13;18.50;99.90
10581;DHT22;5338;51.500;6.802;2022-09-13T02:44:43;18.60;99.90
10581;DHT22;5338;51.500;6.802;2022-09-13T02:47:31;18.60;99.90
10581;DHT22;5338;51.500;6.802;2022-09-13T02:50:10;18.60;99.90
10581;DHT22;5338;51.500;6.802;2022-09-13T02:52:47;18.60;99.90
10581;DHT22;5338;51.500;6.802;2022-09-13T02:55:18;18.60;99.90
10581;DHT22;5338;51.500;6.802;2022-09-13T02:57:53;18.60;99.90
10581;DHT22;5338;51.500;6.802;2022-09-13T03:02:55;18.60;99.90
10581;DHT22;5338;51.500;6.802;2022-09-13T03:13:05;18.60;99.90
10581;DHT22;5338;51.500;6.802;2022-09-13T03:15:45;18.50;99.90
10581;DHT22;5338;51.500;6.802;2022-09-13T03:18:29;18.60;99.90
10581;DHT22;5338;51.500;6.802;2022-09-13T03:21:06;18.40;99.90
10581;DHT22;5338;51.500;6.802;2022-09-13T03:23:44;18.60;99.90
10581;DHT22;5338;51.500;6.802;2022-09-13T03:26:25;18.50;99.90
10581;DHT22;5338;51.500;6.802;2022-09-13T03:29:08;18.20;99.90
10581;DHT22;5338;51.500;6.802;2022-09-13T03:31:43;18.50;99.90
10581;DHT22;5338;51.500;6.802;2022-09-13T03:34:22;18.50;99.90
10581;DHT22;5338;51.500;6.802;2022-09-13T03:36:54;18.50;99.90
10581;DHT22;5338;51.500;6.802;2022-09-13T03:39:27;18.50;99.90
10581;DHT22;5338;51.500;6.802;2022-09-13T03:42:02;18.50;99.90
10581;DHT22;5338;51.500;6.802;2022-09-13T03:44:32;18.50;99.90
10581;DHT22;5338;51.500;6.802;2022-09-13T03:47:01;18.50;99.90
10581;DHT22;5338;51.500;6.802;2022-09-13T03:49:31;17.50;99.90
10581;DHT22;5338;51.500;6.802;2022-09-13T03:54:28;18.30;99.90
10581;DHT22;5338;51.500;6.802;2022-09-13T03:57:10;18.40;99.90
10581;DHT22;5338;51.500;6.802;2022-09-13T03:59:40;18.20;99.90
10581;DHT22;5338;51.500;6.802;2022-09-13T04:04:38;18.40;99.90
10581;DHT22;5338;51.500;6.802;2022-09-13T04:09:33;18.70;99.90
10581;DHT22;5338;51.500;6.802;2022-09-13T04:12:00;18.60;99.90
10581;DHT22;5338;51.500;6.802;2022-09-13T04:14:26;18.30;99.90
10581;DHT22;5338;51.500;6.802;2022-09-13T04:16:54;18.30;99.90
10581;DHT22;5338;51.500;6.802;2022-09-13T04:21:51;18.30;99.90
10581;DHT22;5338;51.500;6.802;2022-09-13T04:26:48;18.30;99.90
10581;DHT22;5338;51.500;6.802;2022-09-13T04:31:52;17.90;99.90
10581;DHT22;5338;51.500;6.802;2022-09-13T04:36:47;18.00;99.90
10581;DHT22;5338;51.500;6.802;2022-09-13T04:39:16;18.30;99.90
10581;DHT22;5338;51.500;6.802;2022-09-13T04:51:53;18.50;99.90
10581;DHT22;5338;51.500;6.802;2022-09-13T04:54:21;18.20;99.90
10581;DHT22;5338;51.500;6.802;2022-09-13T05:01:42;18.20;99.90
10581;DHT22;5338;51.500;6.802;2022-09-13T05:04:09;18.10;99.90
10581;DHT22;5338;51.500;6.802;2022-09-13T05:11:32;18.10;99.90
10581;DHT22;5338;51.500;6.802;2022-09-13T05:13:59;18.10;99.90
10581;DHT22;5338;51.500;6.802;2022-09-13T05:16:28;18.10;99.90
10581;DHT22;5338;51.500;6.802;2022-09-13T05:18:55;18.10;99.90
10581;DHT22;5338;51.500;6.802;2022-09-13T05:26:19;18.20;99.90
10581;DHT22;5338;51.500;6.802;2022-09-13T05:28:47;18.20;99.90
10581;DHT22;5338;51.500;6.802;2022-09-13T05:31:16;18.40;99.90
10581;DHT22;5338;51.500;6.802;2022-09-13T05:33:45;18.20;99.90
10581;DHT22;5338;51.500;6.802;2022-09-13T05:38:40;18.20;99.90
10581;DHT22;5338;51.500;6.802;2022-09-13T05:43:35;18.20;99.90
10581;DHT22;5338;51.500;6.802;2022-09-13T05:46:06;18.20;99.90
10581;DHT22;5338;51.500;6.802;2022-09-13T05:48:34;18.30;99.90
10581;DHT22;5338;51.500;6.802;2022-09-13T05:51:04;18.30;99.90
10581;DHT22;5338;51.500;6.802;2022-09-13T05:53:31;18.30;99.90
10581;DHT22;5338;51.500;6.802;2022-09-13T05:58:25;18.40;99.90
10581;DHT22;5338;51.500;6.802;2022-09-13T06:03:22;18.40;99.90
10581;DHT22;5338;51.500;6.802;2022-09-13T06:10:52;18.60;99.90
10581;DHT22;5338;51.500;6.802;2022-09-13T06:20:42;18.50;99.90
10581;DHT22;5338;51.500;6.802;2022-09-13T06:30:30;18.40;99.90
10581;DHT22;5338;51.500;6.802;2022-09-13T06:32:57;18.60;99.90
10581;DHT22;5338;51.500;6.802;2022-09-13T06:37:56;18.70;99.90
10581;DHT22;5338;51.500;6.802;2022-09-13T06:40:23;18.70;99.90
10581;DHT22;5338;51.500;6.802;2022-09-13T06:55:08;18.90;99.90
10581;DHT22;5338;51.500;6.802;2022-09-13T07:00:03;19.00;99.90
10581;DHT22;5338;51.500;6.802;2022-09-13T07:02:29;18.90;99.90
10581;DHT22;5338;51.500;6.802;2022-09-13T07:04:57;19.20;99.90
10581;DHT22;5338;51.500;6.802;2022-09-13T07:12:19;19.20;99.90
10581;DHT22;5338;51.500;6.802;2022-09-13T07:29:30;19.70;99.90
10581;DHT22;5338;51.500;6.802;2022-09-13T07:34:25;19.80;99.90
10581;DHT22;5338;51.500;6.802;2022-09-13T07:46:44;20.00;99.90
10581;DHT22;5338;51.500;6.802;2022-09-13T07:49:12;20.00;99.90
10581;DHT22;5338;51.500;6.802;2022-09-13T07:51:41;20.10;99.90
10581;DHT22;5338;51.500;6.802;2022-09-13T07:54:11;20.10;99.90
10581;DHT22;5338;51.500;6.802;2022-09-13T07:56:39;20.10;99.90
10581;DHT22;5338;51.500;6.802;2022-09-13T07:59:11;20.00;99.90
10581;DHT22;5338;51.500;6.802;2022-09-13T08:01:39;20.20;99.90
10581;DHT22;5338;51.500;6.802;2022-09-13T08:04:09;20.30;99.90
10581;DHT22;5338;51.500;6.802;2022-09-13T08:06:39;20.40;99.90
10581;DHT22;5338;51.500;6.802;2022-09-13T08:09:07;20.50;99.90
10581;DHT22;5338;51.500;6.802;2022-09-13T08:11:35;20.60;99.90
10581;DHT22;5338;51.500;6.802;2022-09-13T08:14:04;20.60;99.90
10581;DHT22;5338;51.500;6.802;2022-09-13T08:19:01;20.70;99.90
10581;DHT22;5338;51.500;6.802;2022-09-13T08:21:32;20.70;99.90
10581;DHT22;5338;51.500;6.802;2022-09-13T08:26:29;20.80;99.90
10581;DHT22;5338;51.500;6.802;2022-09-13T08:28:57;21.10;99.90
10581;DHT22;5338;51.500;6.802;2022-09-13T08:31:24;20.80;99.90
10581;DHT22;5338;51.500;6.802;2022-09-13T08:33:52;20.60;99.90
10581;DHT22;5338;51.500;6.802;2022-09-13T08:36:19;20.70;99.90
10581;DHT22;5338;51.500;6.802;2022-09-13T08:38:51;21.10;99.90
10581;DHT22;5338;51.500;6.802;2022-09-13T08:41:49;21.10;99.90
10581;DHT22;5338;51.500;6.802;2022-09-13T08:44:23;21.20;99.90
10581;DHT22;5338;51.500;6.802;2022-09-13T08:46:52;21.20;99.90
10581;DHT22;5338;51.500;6.802;2022-09-13T08:49:24;21.30;99.90
10581;DHT22;5338;51.500;6.802;2022-09-13T08:51:54;21.70;99.90
10581;DHT22;5338;51.500;6.802;2022-09-13T08:54:22;21.40;99.90
10581;DHT22;5338;51.500;6.802;2022-09-13T08:56:52;21.50;99.90
10581;DHT22;5338;51.500;6.802;2022-09-13T08:59:28;21.40;99.90
10581;DHT22;5338;51.500;6.802;2022-09-13T09:02:10;21.60;99.90
10581;DHT22;5338;51.500;6.802;2022-09-13T09:04:44;21.70;99.90
10581;DHT22;5338;51.500;6.802;2022-09-13T09:07:15;21.70;99.90
10581;DHT22;5338;51.500;6.802;2022-09-13T09:09:47;21.90;99.90
10581;DHT22;5338;51.500;6.802;2022-09-13T09:12:23;21.90;99.90
10581;DHT22;5338;51.500;6.802;2022-09-13T09:15:00;21.90;99.90
10581;DHT22;5338;51.500;6.802;2022-09-13T09:17:30;22.00;99.90
10581;DHT22;5338;51.500;6.802;2022-09-13T09:20:06;21.90;99.90
10581;DHT22;5338;51.500;6.802;2022-09-13T09:22:35;22.00;99.90
10581;DHT22;5338;51.500;6.802;2022-09-13T09:25:04;22.10;99.90
10581;DHT22;5338;51.500;6.802;2022-09-13T09:29:58;22.40;99.90
10581;DHT22;5338;51.500;6.802;2022-09-13T09:32:54;22.20;99.90
10581;DHT22;5338;51.500;6.802;2022-09-13T09:35:31;22.50;99.90
10581;DHT22;5338;51.500;6.802;2022-09-13T09:38:22;22.60;99.90
10581;DHT22;5338;51.500;6.802;2022-09-13T09:40:59;22.60;99.90
10581;DHT22;5338;51.500;6.802;2022-09-13T09:43:32;22.90;99.90
10581;DHT22;5338;51.500;6.802;2022-09-13T09:46:02;22.70;99.90
10581;DHT22;5338;51.500;6.802;2022-09-13T09:48:38;22.80;99.90
10581;DHT22;5338;51.500;6.802;2022-09-13T09:51:07;22.90;99.90
10581;DHT22;5338;51.500;6.802;2022-09-13T09:53:40;23.00;99.90
10581;DHT22;5338;51.500;6.802;2022-09-13T09:56:21;23.20;99.90
10581;DHT22;5338;51.500;6.802;2022-09-13T09:58:49;23.40;99.90
10581;DHT22;5338;51.500;6.802;2022-09-13T10:01:21;23.60;99.90
10581;DHT22;5338;51.500;6.802;2022-09-13T10:03:51;23.80;99.90
10581;DHT22;5338;51.500;6.802;2022-09-13T10:06:21;24.10;99.90
10581;DHT22;5338;51.500;6.802;2022-09-13T10:08:56;24.40;99.90
10581;DHT22;5338;51.500;6.802;2022-09-13T10:11:37;24.50;99.90
10581;DHT22;5338;51.500;6.802;2022-09-13T10:14:05;24.60;99.90
10581;DHT22;5338;51.500;6.802;2022-09-13T10:19:22;25.20;99.90
10581;DHT22;5338;51.500;6.802;2022-09-13T10:22:00;25.30;99.90
10581;DHT22;5338;51.500;6.802;2022-09-13T10:24:28;25.40;99.90
10581;DHT22;5338;51.500;6.802;2022-09-13T10:26:57;25.80;99.90
10581;DHT22;5338;51.500;6.802;2022-09-13T10:29:25;26.10;99.90
10581;DHT22;5338;51.500;6.802;2022-09-13T10:31:54;26.30;99.90
10581;DHT22;5338;51.500;6.802;2022-09-13T10:34:25;26.00;99.90
10581;DHT22;5338;51.500;6.802;2022-09-13T10:36:57;25.70;99.90
10581;DHT22;5338;51.500;6.802;2022-09-13T10:39:25;25.50;99.90
10581;DHT22;5338;51.500;6.802;2022-09-13T10:41:56;25.50;99.90
10581;DHT22;5338;51.500;6.802;2022-09-13T10:44:29;25.50;99.90
10581;DHT22;5338;51.500;6.802;2022-09-13T10:46:59;25.00;99.90
10581;DHT22;5338;51.500;6.802;2022-09-13T10:49:38;25.50;99.90
10581;DHT22;5338;51.500;6.802;2022-09-13T10:52:28;26.00;99.90
10581;DHT22;5338;51.500;6.802;2022-09-13T10:55:25;26.00;99.90
10581;DHT22;5338;51.500;6.802;2022-09-13T10:57:55;26.40;99.90
10581;DHT22;5338;51.500;6.802;2022-09-13T11:00:44;26.80;99.90
10581;DHT22;5338;51.500;6.802;2022-09-13T11:03:34;26.80;99.90
10581;DHT22;5338;51.500;6.802;2022-09-13T11:06:12;27.20;99.90
10581;DHT22;5338;51.500;6.802;2022-09-13T11:08:49;27.40;99.90
10581;DHT22;5338;51.500;6.802;2022-09-13T11:11:24;27.90;99.90
10581;DHT22;5338;51.500;6.802;2022-09-13T11:14:05;27.90;97.20
10581;DHT22;5338;51.500;6.802;2022-09-13T11:16:49;28.10;97.50
10581;DHT22;5338;51.500;6.802;2022-09-13T11:19:37;28.30;94.80
10581;DHT22;5338;51.500;6.802;2022-09-13T11:22:20;28.40;95.40
10581;DHT22;5338;51.500;6.802;2022-09-13T11:25:00;28.00;98.10
10581;DHT22;5338;51.500;6.802;2022-09-13T11:27:34;28.50;92.20
10581;DHT22;5338;51.500;6.802;2022-09-13T11:30:14;28.60;94.20
10581;DHT22;5338;51.500;6.802;2022-09-13T11:32:51;28.50;89.70
10581;DHT22;5338;51.500;6.802;2022-09-13T11:35:33;28.70;90.10
10581;DHT22;5338;51.500;6.802;2022-09-13T11:38:12;28.70;95.60
10581;DHT22;5338;51.500;6.802;2022-09-13T11:40:50;28.90;86.40
10581;DHT22;5338;51.500;6.802;2022-09-13T11:43:36;29.20;89.30
10581;DHT22;5338;51.500;6.802;2022-09-13T11:46:13;29.20;86.00
10581;DHT22;5338;51.500;6.802;2022-09-13T11:49:09;29.60;88.20
10581;DHT22;5338;51.500;6.802;2022-09-13T11:51:47;29.60;93.80
10581;DHT22;5338;51.500;6.802;2022-09-13T11:54:30;29.30;84.70
10581;DHT22;5338;51.500;6.802;2022-09-13T11:57:04;28.90;84.20
10581;DHT22;5338;51.500;6.802;2022-09-13T11:59:37;27.80;93.50
10581;DHT22;5338;51.500;6.802;2022-09-13T12:02:17;27.50;87.10
10581;DHT22;5338;51.500;6.802;2022-09-13T12:04:50;26.80;93.60
10581;DHT22;5338;51.500;6.802;2022-09-13T12:07:24;27.00;92.60
10581;DHT22;5338;51.500;6.802;2022-09-13T12:09:57;27.10;93.90
10581;DHT22;5338;51.500;6.802;2022-09-13T12:12:30;27.20;93.10
10581;DHT22;5338;51.500;6.802;2022-09-13T12:15:03;27.30;94.30
10581;DHT22;5338;51.500;6.802;2022-09-13T12:17:37;27.50;93.60
10581;DHT22;5338;51.500;6.802;2022-09-13T12:20:12;27.50;93.30
10581;DHT22;5338;51.500;6.802;2022-09-13T12:22:41;27.70;93.40
10581;DHT22;5338;51.500;6.802;2022-09-13T12:25:18;27.90;92.80
10581;DHT22;5338;51.500;6.802;2022-09-13T12:27:53;28.00;91.70
10581;DHT22;5338;51.500;6.802;2022-09-13T12:30:23;28.10;91.10
10581;DHT22;5338;51.500;6.802;2022-09-13T12:32:52;28.00;90.70
10581;DHT22;5338;51.500;6.802;2022-09-13T12:35:24;27.50;90.50
10581;DHT22;5338;51.500;6.802;2022-09-13T12:38:12;27.10;97.90
10581;DHT22;5338;51.500;6.802;2022-09-13T12:40:57;27.70;92.50
10581;DHT22;5338;51.500;6.802;2022-09-13T12:43:51;27.60;93.40
10581;DHT22;5338;51.500;6.802;2022-09-13T12:46:35;27.80;92.90
10581;DHT22;5338;51.500;6.802;2022-09-13T12:49:30;27.50;92.10
10581;DHT22;5338;51.500;6.802;2022-09-13T12:52:15;27.20;92.30
10581;DHT22;5338;51.500;6.802;2022-09-13T12:57:57;27.10;94.00
10581;DHT22;5338;51.500;6.802;2022-09-13T13:00:27;27.60;94.10
10581;DHT22;5338;51.500;6.802;2022-09-13T13:03:02;28.20;98.60
10581;DHT22;5338;51.500;6.802;2022-09-13T13:05:40;28.20;90.30
10581;DHT22;5338;51.500;6.802;2022-09-13T13:08:25;28.30;87.60
10581;DHT22;5338;51.500;6.802;2022-09-13T13:11:02;28.20;90.70
10581;DHT22;5338;51.500;6.802;2022-09-13T13:13:34;28.20;85.90
10581;DHT22;5338;51.500;6.802;2022-09-13T13:16:21;28.20;85.70
10581;DHT22;5338;51.500;6.802;2022-09-13T13:18:49;28.20;83.90
10581;DHT22;5338;51.500;6.802;2022-09-13T13:21:30;27.70;84.70
10581;DHT22;5338;51.500;6.802;2022-09-13T13:27:33;27.10;90.60
10581;DHT22;5338;51.500;6.802;2022-09-13T13:30:39;27.10;92.00
10581;DHT22;5338;51.500;6.802;2022-09-13T13:33:14;26.90;91.50
10581;DHT22;5338;51.500;6.802;2022-09-13T13:41:44;26.20;94.00
10581;DHT22;5338;51.500;6.802;2022-09-13T13:47:51;25.40;94.90
10581;DHT22;5338;51.500;6.802;2022-09-13T13:52:55;25.30;96.10
10581;DHT22;5338;51.500;6.802;2022-09-13T13:55:47;25.60;99.90
10581;DHT22;5338;51.500;6.802;2022-09-13T13:58:36;25.40;98.60
10581;DHT22;5338;51.500;6.802;2022-09-13T14:01:15;25.30;99.60
10581;DHT22;5338;51.500;6.802;2022-09-13T14:06:46;25.40;99.90
10581;DHT22;5338;51.500;6.802;2022-09-13T14:09:27;25.30;99.90
10581;DHT22;5338;51.500;6.802;2022-09-13T14:12:09;25.30;99.90
10581;DHT22;5338;51.500;6.802;2022-09-13T14:14:51;25.30;99.90
10581;DHT22;5338;51.500;6.802;2022-09-13T14:17:53;25.20;99.90
10581;DHT22;5338;51.500;6.802;2022-09-13T14:20:24;25.40;99.90
10581;DHT22;5338;51.500;6.802;2022-09-13T14:25:22;25.40;99.90
10581;DHT22;5338;51.500;6.802;2022-09-13T14:27:54;25.50;99.90
10581;DHT22;5338;51.500;6.802;2022-09-13T14:30:24;25.60;99.90
10581;DHT22;5338;51.500;6.802;2022-09-13T14:32:54;25.60;99.90
10581;DHT22;5338;51.500;6.802;2022-09-13T14:35:25;25.70;99.90
10581;DHT22;5338;51.500;6.802;2022-09-13T14:37:53;25.70;99.90
10581;DHT22;5338;51.500;6.802;2022-09-13T14:40:24;25.60;99.90
10581;DHT22;5338;51.500;6.802;2022-09-13T14:42:54;25.40;99.90
10581;DHT22;5338;51.500;6.802;2022-09-13T14:45:24;25.30;99.90
10581;DHT22;5338;51.500;6.802;2022-09-13T14:47:55;25.20;99.90
10581;DHT22;5338;51.500;6.802;2022-09-13T14:50:26;25.20;99.90
10581;DHT22;5338;51.500;6.802;2022-09-13T14:52:56;25.10;99.90
10581;DHT22;5338;51.500;6.802;2022-09-13T14:55:27;25.20;99.90
10581;DHT22;5338;51.500;6.802;2022-09-13T14:57:59;25.20;99.90
10581;DHT22;5338;51.500;6.802;2022-09-13T15:00:30;25.10;99.90
10581;DHT22;5338;51.500;6.802;2022-09-13T15:03:00;25.10;99.90
10581;DHT22;5338;51.500;6.802;2022-09-13T15:05:30;25.10;99.90
10581;DHT22;5338;51.500;6.802;2022-09-13T15:10:26;25.00;99.90
10581;DHT22;5338;51.500;6.802;2022-09-13T15:12:55;25.00;99.90
10581;DHT22;5338;51.500;6.802;2022-09-13T15:15:37;24.90;99.90
10581;DHT22;5338;51.500;6.802;2022-09-13T15:18:05;24.80;99.90
10581;DHT22;5338;51.500;6.802;2022-09-13T15:20:47;24.70;99.90
10581;DHT22;5338;51.500;6.802;2022-09-13T15:23:16;24.60;99.90
10581;DHT22;5338;51.500;6.802;2022-09-13T15:25:51;24.40;99.90
10581;DHT22;5338;51.500;6.802;2022-09-13T15:28:29;24.30;99.90
10581;DHT22;5338;51.500;6.802;2022-09-13T15:30:59;24.30;99.90
10581;DHT22;5338;51.500;6.802;2022-09-13T15:33:28;24.20;99.90
10581;DHT22;5338;51.500;6.802;2022-09-13T15:36:24;24.20;99.90
10581;DHT22;5338;51.500;6.802;2022-09-13T15:38:59;23.80;99.90
10581;DHT22;5338;51.500;6.802;2022-09-13T15:41:31;24.10;99.90
10581;DHT22;5338;51.500;6.802;2022-09-13T15:43:58;24.00;99.90
10581;DHT22;5338;51.500;6.802;2022-09-13T15:46:27;24.00;99.90
10581;DHT22;5338;51.500;6.802;2022-09-13T15:48:56;24.00;99.90
10581;DHT22;5338;51.500;6.802;2022-09-13T15:53:51;23.80;99.90
10581;DHT22;5338;51.500;6.802;2022-09-13T15:56:20;23.80;99.90
10581;DHT22;5338;51.500;6.802;2022-09-13T16:01:15;23.80;99.90
10581;DHT22;5338;51.500;6.802;2022-09-13T16:03:44;23.80;99.90
10581;DHT22;5338;51.500;6.802;2022-09-13T16:18:27;23.90;99.90
10581;DHT22;5338;51.500;6.802;2022-09-13T16:20:55;23.60;99.90
10581;DHT22;5338;51.500;6.802;2022-09-13T16:23:22;25.00;99.90
10581;DHT22;5338;51.500;6.802;2022-09-13T16:25:52;23.50;99.90
10581;DHT22;5338;51.500;6.802;2022-09-13T16:28:19;23.40;99.90
10581;DHT22;5338;51.500;6.802;2022-09-13T16:38:09;23.40;99.90
10581;DHT22;5338;51.500;6.802;2022-09-13T16:40:38;23.20;99.90
10581;DHT22;5338;51.500;6.802;2022-09-13T16:55:22;23.10;99.90
10581;DHT22;5338;51.500;6.802;2022-09-13T17:10:07;23.00;99.90
10581;DHT22;5338;51.500;6.802;2022-09-13T17:12:37;22.90;99.90
10581;DHT22;5338;51.500;6.802;2022-09-13T17:15:06;22.70;99.90
10581;DHT22;5338;51.500;6.802;2022-09-13T17:20:03;22.80;99.90
10581;DHT22;5338;51.500;6.802;2022-09-13T17:29:55;22.70;99.90
10581;DHT22;5338;51.500;6.802;2022-09-13T17:39:45;22.70;99.90
10581;DHT22;5338;51.500;6.802;2022-09-13T17:47:08;22.60;99.90
10581;DHT22;5338;51.500;6.802;2022-09-13T18:01:52;22.40;99.90
10581;DHT22;5338;51.500;6.802;2022-09-13T18:04:22;22.40;99.90
10581;DHT22;5338;51.500;6.802;2022-09-13T18:06:50;22.40;99.90
10581;DHT22;5338;51.500;6.802;2022-09-13T18:14:13;22.30;99.90
10581;DHT22;5338;51.500;6.802;2022-09-13T18:21:35;22.20;99.90
10581;DHT22;5338;51.500;6.802;2022-09-13T18:29:00;22.10;99.90
10581;DHT22;5338;51.500;6.802;2022-09-13T18:31:28;22.10;99.90
10581;DHT22;5338;51.500;6.802;2022-09-13T18:33:57;22.10;99.90
10581;DHT22;5338;51.500;6.802;2022-09-13T18:36:26;22.00;99.90
10581;DHT22;5338;51.500;6.802;2022-09-13T18:38:55;22.00;99.90
10581;DHT22;5338;51.500;6.802;2022-09-13T18:41:24;22.00;99.90
10581;DHT22;5338;51.500;6.802;2022-09-13T18:43:52;22.00;99.90
10581;DHT22;5338;51.500;6.802;2022-09-13T18:46:21;21.90;99.90
10581;DHT22;5338;51.500;6.802;2022-09-13T18:48:50;21.90;99.90
10581;DHT22;5338;51.500;6.802;2022-09-13T18:51:19;21.90;99.90
10581;DHT22;5338;51.500;6.802;2022-09-13T18:56:16;21.90;99.90
10581;DHT22;5338;51.500;6.802;2022-09-13T19:01:12;21.80;99.90
10581;DHT22;5338;51.500;6.802;2022-09-13T19:03:46;21.80;99.90
10581;DHT22;5338;51.500;6.802;2022-09-13T19:06:15;21.70;99.90
10581;DHT22;5338;51.500;6.802;2022-09-13T19:08:42;21.70;99.90
10581;DHT22;5338;51.500;6.802;2022-09-13T19:13:39;21.60;99.90
10581;DHT22;5338;51.500;6.802;2022-09-13T19:16:08;21.50;99.90
10581;DHT22;5338;51.500;6.802;2022-09-13T19:18:36;21.50;99.90
10581;DHT22;5338;51.500;6.802;2022-09-13T19:21:05;21.40;99.90
10581;DHT22;5338;51.500;6.802;2022-09-13T19:23:33;21.30;99.90
10581;DHT22;5338;51.500;6.802;2022-09-13T19:26:04;21.30;99.90
10581;DHT22;5338;51.500;6.802;2022-09-13T19:28:32;21.20;99.90
10581;DHT22;5338;51.500;6.802;2022-09-13T19:31:04;21.20;99.90
10581;DHT22;5338;51.500;6.802;2022-09-13T19:36:00;21.10;99.90
10581;DHT22;5338;51.500;6.802;2022-09-13T19:38:28;21.10;99.90
10581;DHT22;5338;51.500;6.802;2022-09-13T19:45:55;20.80;99.90
10581;DHT22;5338;51.500;6.802;2022-09-13T19:48:23;21.00;99.90
10581;DHT22;5338;51.500;6.802;2022-09-13T19:50:51;21.00;99.90
10581;DHT22;5338;51.500;6.802;2022-09-13T19:55:46;20.80;99.90
10581;DHT22;5338;51.500;6.802;2022-09-13T19:58:14;20.70;99.90
10581;DHT22;5338;51.500;6.802;2022-09-13T20:05:37;20.60;99.90
10581;DHT22;5338;51.500;6.802;2022-09-13T20:10:32;20.60;99.90
10581;DHT22;5338;51.500;6.802;2022-09-13T20:15:26;20.60;99.90
10581;DHT22;5338;51.500;6.802;2022-09-13T20:22:52;20.40;99.90
10581;DHT22;5338;51.500;6.802;2022-09-13T20:32:40;20.30;99.90
10581;DHT22;5338;51.500;6.802;2022-09-13T20:35:08;20.50;99.90
10581;DHT22;5338;51.500;6.802;2022-09-13T20:40:05;20.30;99.90
10581;DHT22;5338;51.500;6.802;2022-09-13T20:57:17;20.20;99.90
10581;DHT22;5338;51.500;6.802;2022-09-13T21:02:11;20.20;99.90
10581;DHT22;5338;51.500;6.802;2022-09-13T21:04:38;20.40;99.90
10581;DHT22;5338;51.500;6.802;2022-09-13T21:12:18;20.50;99.90
10581;DHT22;5338;51.500;6.802;2022-09-13T21:24:34;20.40;99.90
10581;DHT22;5338;51.500;6.802;2022-09-13T21:27:01;20.10;99.90
10581;DHT22;5338;51.500;6.802;2022-09-13T21:29:29;20.00;99.90
10581;DHT22;5338;51.500;6.802;2022-09-13T21:36:52;19.80;99.90
10581;DHT22;5338;51.500;6.802;2022-09-13T21:46:42;19.80;99.90
10581;DHT22;5338;51.500;6.802;2022-09-13T21:49:10;20.20;99.90
10581;DHT22;5338;51.500;6.802;2022-09-13T21:51:39;20.00;99.90
10581;DHT22;5338;51.500;6.802;2022-09-13T21:54:09;19.70;99.90
10581;DHT22;5338;51.500;6.802;2022-09-13T21:56:38;19.70;99.90
10581;DHT22;5338;51.500;6.802;2022-09-13T21:59:09;19.90;99.90
10581;DHT22;5338;51.500;6.802;2022-09-13T22:01:38;20.10;99.90
10581;DHT22;5338;51.500;6.802;2022-09-13T22:04:09;19.80;99.90
10581;DHT22;5338;51.500;6.802;2022-09-13T22:09:06;19.70;99.90
10581;DHT22;5338;51.500;6.802;2022-09-13T22:11:35;19.60;99.90
10581;DHT22;5338;51.500;6.802;2022-09-13T22:16:32;19.50;99.90
10581;DHT22;5338;51.500;6.802;2022-09-13T22:19:01;19.70;99.90
10581;DHT22;5338;51.500;6.802;2022-09-13T22:21:31;19.40;99.90
10581;DHT22;5338;51.500;6.802;2022-09-13T22:26:27;19.70;99.90
10581;DHT22;5338;51.500;6.802;2022-09-13T22:28:55;19.70;99.90
10581;DHT22;5338;51.500;6.802;2022-09-13T22:31:24;19.60;99.90
10581;DHT22;5338;51.500;6.802;2022-09-13T22:33:51;19.50;99.90
10581;DHT22;5338;51.500;6.802;2022-09-13T22:38:48;19.60;99.90
10581;DHT22;5338;51.500;6.802;2022-09-13T22:41:17;19.60;99.90
10581;DHT22;5338;51.500;6.802;2022-09-13T22:43:44;19.90;99.90
10581;DHT22;5338;51.500;6.802;2022-09-13T22:46:13;19.60;99.90
10581;DHT22;5338;51.500;6.802;2022-09-13T22:48:41;19.70;99.90
10581;DHT22;5338;51.500;6.802;2022-09-13T22:51:09;19.50;99.90
10581;DHT22;5338;51.500;6.802;2022-09-13T22:53:37;19.50;99.90